Time;durP1;ratioP1;P1;durP2;ratioP2;P2;SDS_P1;SDS_P2;PMS_P1;PMS_P2;Temp;Humidity;BMP_temperature;BMP_pressure;BME280_temperature;BME280_humidity;BME280_pressure;Samples;Min_cycle;Max_cycle;Signal;HPM_P1;HPM_P2
2023/05/18 00:00:23;;;;;;;5.57;1.95;;;9.60;96.60;;;;;;5048035;28;20021;-82
2023/05/18 00:02:51;;;;;;;7.85;2.35;;;9.50;96.90;;;;;;5049645;28;20056;-81
2023/05/18 00:05:19;;;;;;;11.25;1.90;;;9.50;97.20;;;;;;5048695;28;20392;-82
2023/05/18 00:07:45;;;;;;;9.00;2.08;;;9.50;97.50;;;;;;5061528;28;20040;-82
2023/05/18 00:10:11;;;;;;;9.60;2.00;;;9.40;97.60;;;;;;5065053;28;20109;-81
2023/05/18 00:12:37;;;;;;;6.75;2.45;;;9.50;97.70;;;;;;5067203;28;20052;-81
2023/05/18 00:15:05;;;;;;;6.30;1.95;;;9.40;97.80;;;;;;5047121;28;20032;-82
2023/05/18 00:17:31;;;;;;;11.35;2.15;;;9.40;98.10;;;;;;5067301;28;20024;-82
2023/05/18 00:19:57;;;;;;;7.53;2.00;;;9.30;98.30;;;;;;5046953;28;20090;-81
2023/05/18 00:22:25;;;;;;;9.50;1.88;;;9.30;98.40;;;;;;5049293;28;20031;-81
2023/05/18 00:24:51;;;;;;;8.00;2.00;;;9.30;98.60;;;;;;5047213;28;20033;-82
2023/05/18 00:27:16;;;;;;;7.00;2.67;;;9.20;98.80;;;;;;5065461;28;20079;-82
2023/05/18 00:29:42;;;;;;;8.38;2.50;;;9.20;98.90;;;;;;5065536;28;20082;-82
2023/05/18 00:32:08;;;;;;;5.75;2.17;;;9.20;99.20;;;;;;5047567;28;20375;-83
2023/05/18 00:34:36;;;;;;;8.63;2.00;;;9.20;99.20;;;;;;5048580;28;20032;-84
2023/05/18 00:39:33;;;;;;;11.52;2.60;;;9.10;99.90;;;;;;5021304;28;20049;-84
2023/05/18 00:41:59;;;;;;;6.10;2.40;;;9.10;99.80;;;;;;5028231;28;20037;-84
2023/05/18 00:44:25;;;;;;;8.05;2.20;;;9.00;99.90;;;;;;5026795;28;20563;-85
2023/05/18 00:46:51;;;;;;;6.85;1.92;;;9.00;99.90;;;;;;5025368;28;20022;-85
2023/05/18 00:49:16;;;;;;;6.47;2.20;;;9.00;99.90;;;;;;5012913;28;20021;-82
2023/05/18 00:51:44;;;;;;;15.23;2.28;;;9.00;99.90;;;;;;5008602;28;20040;-85
2023/05/18 00:54:09;;;;;;;18.40;2.60;;;8.90;99.90;;;;;;5009607;28;20021;-85
2023/05/18 00:56:40;;;;;;;14.52;2.38;;;9.00;99.90;;;;;;5013457;28;20549;-83
2023/05/18 00:59:08;;;;;;;9.48;2.50;;;8.90;99.90;;;;;;5008569;28;20026;-83
2023/05/18 01:01:34;;;;;;;7.05;2.30;;;8.90;99.90;;;;;;5023161;28;20046;-83
2023/05/18 01:04:02;;;;;;;10.95;2.70;;;8.90;99.90;;;;;;5025981;28;20025;-83
2023/05/18 01:06:34;;;;;;;5.18;2.50;;;8.90;99.90;;;;;;5028425;28;20018;-83
2023/05/18 01:09:02;;;;;;;9.38;2.53;;;8.80;99.90;;;;;;5019372;28;20040;-84
2023/05/18 01:11:59;;;;;;;10.15;2.30;;;8.80;99.90;;;;;;5033811;28;20194;-85
2023/05/18 01:14:48;;;;;;;7.63;2.33;;;8.70;99.90;;;;;;5024592;28;20373;-84
2023/05/18 01:17:51;;;;;;;8.30;2.28;;;8.70;99.90;;;;;;5028486;28;20128;-84
2023/05/18 01:20:25;;;;;;;6.70;2.30;;;8.70;99.90;;;;;;5030076;28;20040;-83
2023/05/18 01:23:00;;;;;;;7.03;1.88;;;8.60;99.90;;;;;;4999121;28;20052;-85
2023/05/18 01:25:41;;;;;;;9.73;2.35;;;8.60;99.90;;;;;;5026525;28;20100;-83
2023/05/18 01:28:15;;;;;;;9.10;2.30;;;8.50;99.90;;;;;;5023681;28;20026;-83
2023/05/18 01:30:41;;;;;;;9.35;2.40;;;8.50;99.90;;;;;;5024666;28;20021;-83
2023/05/18 01:33:08;;;;;;;13.23;2.80;;;8.50;99.90;;;;;;5026153;28;20030;-83
2023/05/18 01:35:40;;;;;;;12.15;2.60;;;8.50;99.90;;;;;;5017405;28;20401;-83
2023/05/18 01:38:06;;;;;;;7.93;2.15;;;8.50;99.90;;;;;;5023675;28;20033;-85
2023/05/18 01:41:00;;;;;;;7.88;2.25;;;8.50;99.90;;;;;;5007210;28;20036;-83
2023/05/18 01:43:39;;;;;;;4.72;2.33;;;8.50;99.90;;;;;;5027614;28;20059;-83
2023/05/18 01:46:16;;;;;;;14.02;2.08;;;8.50;99.90;;;;;;5028760;28;20025;-84
2023/05/18 01:48:52;;;;;;;4.32;2.22;;;8.40;99.90;;;;;;5028380;28;20025;-84
2023/05/18 01:51:20;;;;;;;9.52;2.33;;;8.40;99.90;;;;;;5011309;28;20406;-83
2023/05/18 01:53:53;;;;;;;8.40;2.20;;;8.30;99.90;;;;;;5029409;28;20126;-83
2023/05/18 01:56:22;;;;;;;8.40;2.55;;;8.30;99.90;;;;;;5026298;28;20025;-83
2023/05/18 01:58:49;;;;;;;9.90;2.15;;;8.30;99.90;;;;;;5051209;28;20041;-83
2023/05/18 02:01:18;;;;;;;9.43;2.55;;;8.20;99.90;;;;;;5035399;28;20101;-84
2023/05/18 02:03:44;;;;;;;13.40;2.28;;;8.20;99.90;;;;;;5037601;28;20036;-84
2023/05/18 02:06:10;;;;;;;6.00;2.28;;;8.20;99.90;;;;;;5024162;28;20041;-82
2023/05/18 02:08:36;;;;;;;7.53;2.53;;;8.20;99.90;;;;;;5030319;28;20469;-83
2023/05/18 02:11:02;;;;;;;8.73;2.63;;;8.20;99.90;;;;;;5029644;28;20045;-85
2023/05/18 02:13:27;;;;;;;6.13;2.35;;;8.10;99.90;;;;;;5018598;28;20029;-84
2023/05/18 02:15:53;;;;;;;8.90;2.67;;;8.10;99.90;;;;;;5030283;28;20048;-85
2023/05/18 02:18:20;;;;;;;10.18;2.40;;;8.10;99.90;;;;;;5011369;28;20018;-84
2023/05/18 02:20:48;;;;;;;13.45;2.88;;;8.10;99.90;;;;;;5019590;28;20121;-84
2023/05/18 02:23:14;;;;;;;14.93;3.25;;;8.10;99.90;;;;;;5011676;28;21163;-84
2023/05/18 02:25:43;;;;;;;14.00;3.70;;;8.10;99.90;;;;;;5029203;28;20100;-85
2023/05/18 02:28:08;;;;;;;9.52;2.45;;;8.10;99.90;;;;;;5010958;28;20067;-83
2023/05/18 02:30:34;;;;;;;11.63;2.67;;;8.00;99.90;;;;;;5018542;28;20029;-83
2023/05/18 02:33:00;;;;;;;8.23;2.78;;;8.00;99.90;;;;;;5017804;28;20027;-82
2023/05/18 02:35:25;;;;;;;7.68;2.72;;;8.00;99.90;;;;;;5028216;28;20037;-84
2023/05/18 02:37:52;;;;;;;13.73;3.20;;;8.00;99.90;;;;;;5011635;28;20021;-84
2023/05/18 02:40:18;;;;;;;12.05;3.33;;;8.00;99.90;;;;;;5027396;28;20473;-84
2023/05/18 02:42:46;;;;;;;11.75;3.13;;;8.00;99.90;;;;;;5015991;28;20036;-84
2023/05/18 02:45:14;;;;;;;9.43;3.10;;;7.90;99.90;;;;;;5028477;28;20063;-82
2023/05/18 02:47:42;;;;;;;13.68;3.00;;;8.00;99.90;;;;;;5029015;28;20025;-83
2023/05/18 02:50:08;;;;;;;12.95;2.83;;;7.90;99.90;;;;;;5017226;28;20113;-83
2023/05/18 02:52:37;;;;;;;13.13;3.13;;;7.90;99.90;;;;;;5027552;28;20040;-82
2023/05/18 02:55:04;;;;;;;8.10;2.58;;;7.90;99.90;;;;;;5027121;28;20072;-84
2023/05/18 02:57:31;;;;;;;9.85;2.83;;;7.90;99.90;;;;;;5003974;28;20112;-84
2023/05/18 02:59:57;;;;;;;10.20;2.60;;;7.90;99.90;;;;;;5028811;28;20086;-84
2023/05/18 03:02:26;;;;;;;9.43;3.22;;;7.90;99.90;;;;;;5028272;28;20021;-84
2023/05/18 03:04:56;;;;;;;10.82;3.28;;;7.90;99.90;;;;;;5011189;28;20120;-84
2023/05/18 03:07:26;;;;;;;10.80;3.20;;;7.90;99.90;;;;;;5027283;28;20022;-84
2023/05/18 03:09:52;;;;;;;10.60;3.03;;;7.90;99.90;;;;;;5028537;28;20037;-84
2023/05/18 03:12:17;;;;;;;12.40;3.60;;;7.90;99.90;;;;;;5028496;28;20156;-85
2023/05/18 03:14:43;;;;;;;6.70;2.30;;;7.90;99.90;;;;;;5027145;28;20021;-84
2023/05/18 03:17:09;;;;;;;9.30;3.53;;;7.90;99.90;;;;;;5027282;28;20112;-83
2023/05/18 03:19:35;;;;;;;15.40;3.03;;;7.80;99.90;;;;;;5027409;28;20083;-85
2023/05/18 03:22:00;;;;;;;9.85;2.60;;;7.80;99.90;;;;;;5027575;28;20025;-84
2023/05/18 03:24:29;;;;;;;4.78;2.95;;;7.80;99.90;;;;;;5018607;28;20045;-85
2023/05/18 03:26:55;;;;;;;7.93;2.72;;;7.80;99.90;;;;;;5011687;28;20385;-84
2023/05/18 03:29:22;;;;;;;12.70;2.97;;;7.80;99.90;;;;;;5028281;28;20549;-83
2023/05/18 03:31:47;;;;;;;11.35;2.92;;;7.80;99.90;;;;;;5016950;28;20022;-83
2023/05/18 03:34:13;;;;;;;12.98;3.35;;;7.80;99.90;;;;;;5010711;28;20025;-82
2023/05/18 03:36:41;;;;;;;11.75;2.45;;;7.80;99.90;;;;;;5028780;28;20030;-85
2023/05/18 03:39:08;;;;;;;15.23;3.03;;;7.80;99.90;;;;;;5026363;28;20068;-84
2023/05/18 03:41:36;;;;;;;13.18;3.50;;;7.80;99.90;;;;;;5010750;28;20084;-85
2023/05/18 03:44:02;;;;;;;13.27;3.45;;;7.70;99.90;;;;;;5012060;28;20486;-84
2023/05/18 03:46:27;;;;;;;11.98;3.38;;;7.80;99.90;;;;;;5023125;28;20021;-84
2023/05/18 03:48:56;;;;;;;11.32;3.45;;;7.80;99.90;;;;;;5052856;28;20101;-84
2023/05/18 03:51:22;;;;;;;14.00;2.90;;;7.80;99.90;;;;;;5035254;28;20112;-82
2023/05/18 03:53:48;;;;;;;12.57;3.55;;;7.80;99.90;;;;;;5009246;28;20120;-83
2023/05/18 03:56:13;;;;;;;10.63;3.10;;;7.80;99.90;;;;;;5027964;28;20037;-83
2023/05/18 03:58:41;;;;;;;13.07;3.05;;;7.80;99.90;;;;;;5007932;28;20034;-83
2023/05/18 04:01:07;;;;;;;11.38;3.15;;;7.80;99.90;;;;;;5027167;28;20025;-83
2023/05/18 04:03:33;;;;;;;6.90;2.58;;;7.80;99.90;;;;;;5026977;28;20529;-83
2023/05/18 04:05:58;;;;;;;18.25;3.13;;;7.80;99.90;;;;;;5025107;28;20554;-83
2023/05/18 04:08:24;;;;;;;12.38;3.47;;;7.90;99.90;;;;;;5016434;28;20024;-84
2023/05/18 04:10:51;;;;;;;19.52;3.67;;;7.90;99.90;;;;;;5014939;28;20139;-83
2023/05/18 04:13:16;;;;;;;11.73;3.20;;;7.90;99.90;;;;;;5026666;28;20025;-83
2023/05/18 04:15:44;;;;;;;10.23;3.03;;;7.90;99.90;;;;;;5025208;28;20457;-83
2023/05/18 04:18:14;;;;;;;14.82;3.20;;;7.90;99.90;;;;;;5024215;28;20025;-83
2023/05/18 04:20:41;;;;;;;11.05;3.00;;;7.90;99.90;;;;;;5023903;28;20033;-83
2023/05/18 04:23:08;;;;;;;12.40;2.92;;;8.00;99.90;;;;;;5008427;28;20064;-83
2023/05/18 04:25:34;;;;;;;10.23;3.20;;;8.10;99.90;;;;;;5023246;28;20033;-82
2023/05/18 04:28:01;;;;;;;9.40;3.08;;;8.10;99.90;;;;;;5009207;28;20043;-82
2023/05/18 04:30:28;;;;;;;15.00;4.07;;;8.20;99.90;;;;;;5008473;28;20362;-83
2023/05/18 04:32:56;;;;;;;8.73;3.10;;;8.20;99.90;;;;;;5024983;28;20022;-83
2023/05/18 04:35:24;;;;;;;14.45;3.47;;;8.20;99.90;;;;;;5023128;28;20166;-83
2023/05/18 04:37:53;;;;;;;13.18;3.05;;;8.20;99.90;;;;;;5017044;28;20049;-83
2023/05/18 04:40:19;;;;;;;10.93;2.75;;;8.20;99.90;;;;;;5025367;28;20166;-85
2023/05/18 04:42:46;;;;;;;10.60;3.53;;;8.30;99.90;;;;;;5010053;28;20120;-85
2023/05/18 04:45:16;;;;;;;12.75;3.28;;;8.40;99.90;;;;;;5009965;28;20084;-86
2023/05/18 04:47:45;;;;;;;13.90;3.35;;;8.50;99.90;;;;;;5017739;28;20358;-85
2023/05/18 04:50:22;;;;;;;14.30;3.97;;;8.50;99.90;;;;;;5008699;28;20107;-84
2023/05/18 04:52:49;;;;;;;7.28;3.08;;;8.60;99.90;;;;;;5028595;28;20025;-85
2023/05/18 04:55:21;;;;;;;12.80;3.22;;;8.70;99.90;;;;;;5023839;28;20038;-84
2023/05/18 04:57:48;;;;;;;19.42;3.47;;;8.70;99.90;;;;;;5001901;28;20095;-85
2023/05/18 05:00:14;;;;;;;11.45;3.05;;;8.80;99.90;;;;;;5010086;28;20034;-85
2023/05/18 05:02:40;;;;;;;14.38;3.58;;;8.80;99.90;;;;;;5026761;28;20152;-85
2023/05/18 05:05:09;;;;;;;14.38;3.05;;;8.90;99.90;;;;;;5028991;28;20112;-84
2023/05/18 05:07:35;;;;;;;11.73;3.67;;;9.00;99.90;;;;;;5026102;28;20037;-83
2023/05/18 05:10:00;;;;;;;9.23;2.78;;;9.00;99.90;;;;;;5016514;28;20025;-83
2023/05/18 05:12:26;;;;;;;12.30;2.80;;;9.10;99.90;;;;;;5028031;28;20021;-83
2023/05/18 05:14:54;;;;;;;11.07;3.10;;;9.10;99.90;;;;;;5013909;28;20442;-83
2023/05/18 05:17:24;;;;;;;11.55;3.13;;;9.10;99.90;;;;;;5024001;28;20048;-84
2023/05/18 05:19:49;;;;;;;11.57;2.90;;;9.20;99.90;;;;;;5026054;28;20076;-85
2023/05/18 05:22:16;;;;;;;14.77;3.17;;;9.30;99.90;;;;;;5026234;28;20049;-84
2023/05/18 05:24:42;;;;;;;6.72;2.90;;;9.40;99.90;;;;;;5027906;28;20025;-84
2023/05/18 05:27:07;;;;;;;13.82;3.50;;;9.50;99.90;;;;;;5027516;28;20399;-84
2023/05/18 05:29:33;;;;;;;9.02;2.90;;;9.50;99.90;;;;;;5008652;28;20076;-85
2023/05/18 05:32:01;;;;;;;10.50;3.13;;;9.60;99.90;;;;;;5026547;28;20474;-85
2023/05/18 05:34:26;;;;;;;11.02;2.78;;;9.70;99.90;;;;;;5026615;28;20030;-85
2023/05/18 05:36:52;;;;;;;12.45;3.00;;;9.70;99.90;;;;;;5024334;28;20037;-85
2023/05/18 05:39:17;;;;;;;10.50;2.85;;;9.80;99.90;;;;;;5008044;28;20092;-85
2023/05/18 05:41:43;;;;;;;15.23;2.97;;;9.80;99.90;;;;;;5007454;28;20014;-85
2023/05/18 05:44:09;;;;;;;16.80;3.67;;;9.90;99.90;;;;;;5027244;28;20017;-85
2023/05/18 05:46:34;;;;;;;14.73;3.40;;;10.00;99.90;;;;;;5016648;28;20099;-85
2023/05/18 05:49:00;;;;;;;14.35;3.33;;;10.00;99.90;;;;;;5027245;28;20013;-85
2023/05/18 05:51:26;;;;;;;13.88;3.10;;;10.10;99.90;;;;;;5026812;28;20030;-85
2023/05/18 05:53:52;;;;;;;9.70;3.67;;;10.20;99.90;;;;;;5025706;28;20079;-85
2023/05/18 05:56:17;;;;;;;13.63;3.33;;;10.30;99.90;;;;;;5023771;28;20068;-85
2023/05/18 05:58:43;;;;;;;12.90;3.33;;;10.40;99.90;;;;;;5022264;28;20087;-85
2023/05/18 06:01:09;;;;;;;13.00;2.55;;;10.50;99.90;;;;;;5025470;28;20535;-86
2023/05/18 06:03:37;;;;;;;10.90;3.30;;;10.70;99.90;;;;;;5007131;28;20033;-84
2023/05/18 06:06:03;;;;;;;20.13;3.08;;;10.80;99.90;;;;;;5024213;28;20078;-85
2023/05/18 06:08:31;;;;;;;12.68;3.67;;;10.90;99.90;;;;;;5017927;28;20486;-85
2023/05/18 06:10:56;;;;;;;13.35;3.20;;;11.00;99.90;;;;;;5024283;28;20547;-86
2023/05/18 06:13:22;;;;;;;15.43;4.07;;;11.00;99.90;;;;;;5026649;28;20025;-85
2023/05/18 06:15:52;;;;;;;15.52;3.83;;;11.10;99.90;;;;;;5028436;28;20045;-86
2023/05/18 06:18:18;;;;;;;9.65;3.03;;;11.10;99.90;;;;;;5049028;28;20026;-86
2023/05/18 06:20:44;;;;;;;10.43;2.42;;;11.20;99.90;;;;;;5046267;28;20082;-83
2023/05/18 06:23:09;;;;;;;17.23;2.97;;;11.20;99.90;;;;;;5031571;28;20037;-82
2023/05/18 06:25:35;;;;;;;9.38;3.15;;;11.20;99.90;;;;;;5034360;28;20041;-85
2023/05/18 06:28:03;;;;;;;14.93;3.17;;;11.10;99.90;;;;;;5012659;28;20094;-85
2023/05/18 06:30:31;;;;;;;12.40;3.03;;;11.20;99.90;;;;;;5034254;28;20113;-85
2023/05/18 06:32:57;;;;;;;7.10;2.50;;;11.20;99.90;;;;;;5034712;28;20034;-85
2023/05/18 06:35:25;;;;;;;10.82;2.88;;;11.20;99.90;;;;;;5010682;28;20040;-86
2023/05/18 06:37:50;;;;;;;5.80;2.67;;;11.20;99.90;;;;;;5029065;28;20206;-86
2023/05/18 06:40:16;;;;;;;11.98;3.08;;;11.30;99.90;;;;;;5010308;28;20573;-85
2023/05/18 06:42:44;;;;;;;16.80;3.20;;;11.30;99.90;;;;;;5010198;28;20029;-86
2023/05/18 06:45:10;;;;;;;14.07;2.78;;;11.40;99.90;;;;;;5030380;28;20060;-85
2023/05/18 06:47:36;;;;;;;10.35;2.67;;;11.50;99.90;;;;;;5012384;28;20029;-85
2023/05/18 06:50:02;;;;;;;17.02;2.88;;;11.60;99.90;;;;;;5027124;28;20056;-85
2023/05/18 06:52:28;;;;;;;10.35;2.58;;;11.80;99.90;;;;;;5029380;28;20600;-85
2023/05/18 06:54:54;;;;;;;10.70;2.90;;;11.80;99.90;;;;;;5015587;28;20033;-85
2023/05/18 06:57:20;;;;;;;14.27;2.97;;;11.80;99.90;;;;;;5018219;28;20477;-86
2023/05/18 06:59:49;;;;;;;10.23;3.53;;;11.90;99.90;;;;;;5031625;28;20021;-85
2023/05/18 07:02:14;;;;;;;17.40;2.90;;;12.00;99.90;;;;;;5010910;28;20028;-85
2023/05/18 07:04:40;;;;;;;10.32;2.38;;;12.00;99.90;;;;;;5028579;28;20478;-85
2023/05/18 07:07:06;;;;;;;12.00;2.10;;;12.20;99.90;;;;;;5027556;28;20028;-85
2023/05/18 07:09:32;;;;;;;14.02;2.20;;;12.20;99.10;;;;;;5029607;28;20432;-85
2023/05/18 07:12:00;;;;;;;12.45;2.60;;;12.40;98.60;;;;;;5011191;28;20113;-85
2023/05/18 07:14:25;;;;;;;10.68;2.40;;;12.30;98.60;;;;;;5028200;28;20541;-86
2023/05/18 07:16:51;;;;;;;14.15;2.78;;;12.40;98.60;;;;;;5024518;28;20112;-83
2023/05/18 07:19:16;;;;;;;10.52;2.10;;;12.50;98.10;;;;;;5029687;28;20151;-86
2023/05/18 07:21:42;;;;;;;10.15;2.13;;;12.50;98.50;;;;;;5029619;28;20108;-86
2023/05/18 07:24:08;;;;;;;11.02;2.30;;;12.50;98.20;;;;;;5025225;28;20236;-86
2023/05/18 07:26:33;;;;;;;8.10;1.98;;;12.60;97.90;;;;;;5029101;28;20119;-86
2023/05/18 07:28:59;;;;;;;10.25;2.28;;;12.80;97.80;;;;;;5019389;28;20045;-86
2023/05/18 07:31:26;;;;;;;8.95;2.15;;;12.80;97.60;;;;;;5027935;28;20038;-87
2023/05/18 07:33:51;;;;;;;11.77;2.22;;;13.00;98.30;;;;;;5009104;28;20151;-85
2023/05/18 07:36:17;;;;;;;13.05;2.67;;;13.00;97.80;;;;;;5010024;28;20076;-85
2023/05/18 07:38:46;;;;;;;17.92;2.83;;;13.20;97.30;;;;;;5010664;28;20473;-85
2023/05/18 07:41:11;;;;;;;6.22;2.03;;;13.30;96.90;;;;;;5027295;28;20027;-84
2023/05/18 07:43:37;;;;;;;9.07;2.72;;;13.40;97.00;;;;;;5026873;28;20504;-83
2023/05/18 07:46:03;;;;;;;9.88;2.60;;;13.60;96.70;;;;;;5029515;28;20036;-82
2023/05/18 07:48:28;;;;;;;9.57;2.30;;;13.80;97.20;;;;;;5028633;28;20057;-92
2023/05/18 07:50:54;;;;;;;9.02;1.98;;;13.90;96.20;;;;;;5019013;28;20025;-94
2023/05/18 07:53:19;;;;;;;17.80;2.60;;;13.90;95.00;;;;;;5012132;28;20108;-91
2023/05/18 07:55:45;;;;;;;16.20;2.50;;;14.10;94.90;;;;;;5037827;28;20049;-91
2023/05/18 07:58:12;;;;;;;14.02;2.67;;;14.20;94.70;;;;;;5039747;28;20449;-84
2023/05/18 08:00:37;;;;;;;8.63;2.35;;;14.30;94.80;;;;;;5028477;28;20135;-84
2023/05/18 08:03:05;;;;;;;8.77;2.20;;;14.40;94.00;;;;;;5028132;28;20013;-83
2023/05/18 08:05:31;;;;;;;13.55;2.70;;;14.50;93.70;;;;;;5023328;28;20056;-82
2023/05/18 08:07:56;;;;;;;11.07;2.08;;;14.70;94.20;;;;;;5028792;28;20117;-77
2023/05/18 08:10:22;;;;;;;11.32;3.28;;;14.90;94.00;;;;;;5024889;28;20018;-77
2023/05/18 08:12:47;;;;;;;137.00;51.55;;;15.20;93.10;;;;;;5024806;28;20057;-79
2023/05/18 08:15:13;;;;;;;155.45;51.25;;;15.40;92.40;;;;;;5026497;28;20057;-77
2023/05/18 08:17:39;;;;;;;12.05;2.92;;;15.40;92.90;;;;;;5026505;28;20087;-77
2023/05/18 08:20:07;;;;;;;10.77;2.17;;;15.60;92.20;;;;;;5025173;28;20021;-76
2023/05/18 08:22:32;;;;;;;11.30;2.63;;;15.60;91.50;;;;;;5027061;28;20087;-77
2023/05/18 08:25:00;;;;;;;6.97;2.47;;;15.40;90.60;;;;;;5005633;28;20029;-77
2023/05/18 08:27:27;;;;;;;6.90;2.75;;;15.40;91.50;;;;;;5026460;28;20083;-77
2023/05/18 08:29:52;;;;;;;11.40;2.88;;;15.80;90.90;;;;;;5023676;28;20033;-77
2023/05/18 08:32:18;;;;;;;10.50;2.80;;;16.10;89.70;;;;;;5025249;28;20018;-77
2023/05/18 08:34:43;;;;;;;14.32;2.22;;;16.30;87.40;;;;;;5026295;28;20036;-77
2023/05/18 08:37:10;;;;;;;7.43;2.13;;;16.70;88.20;;;;;;5025002;28;20524;-77
2023/05/18 08:39:39;;;;;;;9.20;2.63;;;17.10;87.30;;;;;;5024815;28;20024;-77
2023/05/18 08:42:19;;;;;;;12.35;2.25;;;17.40;87.00;;;;;;5026362;28;20112;-76
2023/05/18 08:44:55;;;;;;;7.00;2.30;;;17.80;82.40;;;;;;5025430;28;20033;-76
2023/05/18 08:47:25;;;;;;;7.93;2.50;;;18.00;80.80;;;;;;5025753;28;20072;-77
2023/05/18 08:49:54;;;;;;;11.82;2.95;;;18.10;79.90;;;;;;5024085;28;20033;-77
2023/05/18 08:52:27;;;;;;;11.52;2.72;;;18.20;80.60;;;;;;5022583;28;20021;-77
2023/05/18 08:54:53;;;;;;;11.13;3.22;;;18.30;80.50;;;;;;5023631;28;20022;-77
2023/05/18 08:57:21;;;;;;;10.07;2.78;;;18.60;77.50;;;;;;5024573;28;20123;-77
2023/05/18 08:59:51;;;;;;;8.13;2.75;;;18.60;76.50;;;;;;5029679;28;20053;-77
2023/05/18 09:02:20;;;;;;;10.77;2.75;;;18.70;77.40;;;;;;5006198;28;20552;-77
2023/05/18 09:04:47;;;;;;;11.07;2.47;;;18.90;76.30;;;;;;5005883;28;20049;-77
2023/05/18 09:07:13;;;;;;;12.65;3.00;;;19.20;74.80;;;;;;5024087;28;20033;-77
2023/05/18 09:09:39;;;;;;;8.35;2.72;;;19.30;73.50;;;;;;5157213;22;20337;-78
2023/05/18 09:12:06;;;;;;;12.60;2.50;;;19.30;74.10;;;;;;5001036;28;20033;-77
2023/05/18 09:14:32;;;;;;;12.18;2.55;;;19.00;73.60;;;;;;5003578;28;20334;-77
2023/05/18 09:16:57;;;;;;;7.57;2.60;;;19.10;73.10;;;;;;5015331;28;20033;-77
2023/05/18 09:19:23;;;;;;;8.40;2.67;;;19.00;72.00;;;;;;5006465;28;20029;-77
2023/05/18 09:21:49;;;;;;;10.52;2.65;;;19.00;73.40;;;;;;5005867;28;20024;-77
2023/05/18 09:24:18;;;;;;;12.02;3.03;;;19.20;70.60;;;;;;5015049;28;20048;-77
2023/05/18 09:26:46;;;;;;;18.83;3.58;;;19.40;71.80;;;;;;5019721;28;20059;-77
2023/05/18 09:29:22;;;;;;;8.50;2.60;;;19.50;70.30;;;;;;5018502;28;20492;-77
2023/05/18 09:31:52;;;;;;;118.43;44.90;;;19.20;70.40;;;;;;5014522;28;20030;-75
2023/05/18 09:34:18;;;;;;;11.75;3.65;;;19.00;70.90;;;;;;5017394;28;20037;-77
2023/05/18 09:36:55;;;;;;;10.18;3.08;;;19.10;72.00;;;;;;5015928;28;20034;-77
2023/05/18 09:39:21;;;;;;;10.13;2.83;;;19.20;71.00;;;;;;5016255;28;20022;-77
2023/05/18 09:41:56;;;;;;;8.63;2.60;;;19.40;71.00;;;;;;5018652;28;20124;-77
2023/05/18 09:44:34;;;;;;;12.13;3.22;;;19.50;70.10;;;;;;5014788;28;20520;-81
2023/05/18 09:47:01;;;;;;;11.13;2.58;;;19.60;68.70;;;;;;5000565;28;20022;-78
2023/05/18 09:49:30;;;;;;;6.15;2.60;;;19.80;69.40;;;;;;5000150;28;20713;-77
2023/05/18 09:51:59;;;;;;;10.00;2.95;;;20.10;68.70;;;;;;5017876;28;20541;-79
2023/05/18 09:54:24;;;;;;;14.32;3.38;;;20.10;67.10;;;;;;5013052;28;20501;-79
2023/05/18 09:56:50;;;;;;;10.52;3.45;;;20.30;66.60;;;;;;5003885;28;20029;-77
2023/05/18 10:02:04;;;;;;;14.15;3.42;;;20.60;66.00;;;;;;5105303;22;20779;-79
2023/05/18 10:04:58;;;;;;;9.43;3.10;;;20.50;65.70;;;;;;5046522;28;20028;-77
2023/05/18 10:07:24;;;;;;;7.20;3.47;;;20.50;65.40;;;;;;5043957;28;20120;-77
2023/05/18 10:10:02;;;;;;;14.13;3.30;;;20.60;65.90;;;;;;5048152;28;20666;-79
2023/05/18 10:12:28;;;;;;;10.80;2.90;;;20.30;63.90;;;;;;5031192;28;20348;-79
2023/05/18 10:14:54;;;;;;;12.57;2.78;;;20.50;66.60;;;;;;5050063;28;20574;-78
2023/05/18 10:17:20;;;;;;;8.80;3.47;;;20.90;65.10;;;;;;5029463;28;20043;-78
2023/05/18 10:19:49;;;;;;;10.10;2.92;;;21.50;64.00;;;;;;5046530;28;20033;-77
2023/05/18 10:22:16;;;;;;;7.50;2.55;;;21.70;63.70;;;;;;5048778;28;20127;-78
2023/05/18 10:24:50;;;;;;;7.97;3.10;;;21.40;60.80;;;;;;5042681;28;20047;-78
2023/05/18 10:27:18;;;;;;;12.60;2.80;;;21.20;61.70;;;;;;5047641;28;20096;-77
2023/05/18 10:29:45;;;;;;;9.13;3.08;;;21.20;62.80;;;;;;5047128;28;20017;-78
2023/05/18 10:32:14;;;;;;;7.72;2.78;;;21.30;60.60;;;;;;5047978;28;20025;-77
2023/05/18 10:34:43;;;;;;;12.20;3.08;;;21.50;61.70;;;;;;5048195;28;20055;-77
2023/05/18 10:37:10;;;;;;;102.18;40.00;;;21.80;62.20;;;;;;5031811;28;20040;-82
2023/05/18 10:39:36;;;;;;;8.90;2.95;;;21.60;62.60;;;;;;5049349;28;20020;-77
2023/05/18 10:42:03;;;;;;;8.52;2.83;;;21.90;59.80;;;;;;5049566;28;20021;-76
2023/05/18 10:44:30;;;;;;;6.68;2.55;;;22.00;59.00;;;;;;5030393;28;20029;-77
2023/05/18 10:46:56;;;;;;;7.68;3.40;;;22.70;59.60;;;;;;5036918;28;20037;-78
2023/05/18 10:49:24;;;;;;;9.45;3.13;;;22.60;59.30;;;;;;5059475;28;20433;-77
2023/05/18 10:51:55;;;;;;;13.13;3.95;;;22.20;59.60;;;;;;5057134;28;20153;-77
2023/05/18 10:54:23;;;;;;;14.13;3.70;;;22.30;59.20;;;;;;5055226;28;20020;-77
2023/05/18 10:56:52;;;;;;;9.85;3.28;;;22.60;58.30;;;;;;5057940;28;20115;-77
2023/05/18 10:59:19;;;;;;;10.10;3.30;;;22.90;58.60;;;;;;5057460;28;20155;-75
2023/05/18 11:01:48;;;;;;;228.80;106.63;;;22.80;58.00;;;;;;5055136;28;20119;-77
2023/05/18 11:04:14;;;;;;;9.13;2.95;;;22.80;57.90;;;;;;5055778;28;20074;-78
2023/05/18 11:06:40;;;;;;;8.90;3.22;;;22.80;58.20;;;;;;5038742;28;20475;-77
2023/05/18 11:09:21;;;;;;;11.40;2.85;;;22.60;57.50;;;;;;5056743;28;20143;-77
2023/05/18 11:11:55;;;;;;;12.77;3.35;;;22.70;60.30;;;;;;5049682;28;20836;-78
2023/05/18 11:14:29;;;;;;;9.38;3.50;;;22.70;57.90;;;;;;5052166;28;20036;-77
2023/05/18 11:17:34;;;;;;;11.60;3.75;;;22.40;57.70;;;;;;5054056;28;20044;-77
2023/05/18 11:20:08;;;;;;;9.68;3.30;;;21.80;58.60;;;;;;5039345;28;20388;-76
2023/05/18 11:22:49;;;;;;;15.95;3.60;;;21.40;60.20;;;;;;5057685;28;20529;-78
2023/05/18 11:25:26;;;;;;;11.60;3.45;;;20.90;60.20;;;;;;5057067;28;20021;-76
2023/05/18 11:28:12;;;;;;;9.15;3.75;;;20.80;61.40;;;;;;5055427;28;20040;-75
2023/05/18 11:30:40;;;;;;;9.02;3.60;;;21.00;61.50;;;;;;5050948;28;20032;-76
2023/05/18 11:33:16;;;;;;;12.55;4.57;;;21.30;60.80;;;;;;5053504;28;20063;-77
2023/05/18 11:35:55;;;;;;;11.35;3.50;;;21.50;59.30;;;;;;5051619;28;20040;-77
2023/05/18 11:38:59;;;;;;;11.35;3.25;;;21.60;59.50;;;;;;5053077;28;20032;-77
2023/05/18 11:41:38;;;;;;;15.52;3.65;;;21.60;59.00;;;;;;5052420;28;20060;-77
2023/05/18 11:44:13;;;;;;;8.38;3.22;;;21.70;57.50;;;;;;5052507;28;20123;-77
2023/05/18 11:46:55;;;;;;;9.23;3.05;;;21.80;57.80;;;;;;5048411;28;20516;-78
2023/05/18 11:49:52;;;;;;;11.75;3.42;;;21.70;58.00;;;;;;5054128;28;20103;-78
2023/05/18 11:52:20;;;;;;;8.07;3.17;;;21.90;58.20;;;;;;5033422;28;20029;-77
2023/05/18 11:54:56;;;;;;;9.82;3.50;;;21.80;58.00;;;;;;5029729;28;20087;-77
2023/05/18 11:57:28;;;;;;;14.02;3.45;;;21.30;58.20;;;;;;5049859;28;20041;-78
2023/05/18 11:59:58;;;;;;;12.60;3.80;;;21.80;59.10;;;;;;5049361;28;20035;-77
2023/05/18 12:02:30;;;;;;;5.47;2.85;;;21.90;59.20;;;;;;5035826;28;20047;-77
2023/05/18 12:04:58;;;;;;;8.10;3.45;;;21.90;57.90;;;;;;5034366;28;20443;-78
2023/05/18 12:07:33;;;;;;;13.10;3.92;;;22.20;57.20;;;;;;5038039;28;20245;-77
2023/05/18 12:10:00;;;;;;;6.13;3.08;;;22.40;57.60;;;;;;5040425;28;20035;-78
2023/05/18 12:12:27;;;;;;;11.73;3.67;;;22.40;57.20;;;;;;5040337;28;20103;-78
2023/05/18 12:15:04;;;;;;;9.88;3.75;;;22.40;57.80;;;;;;5036174;28;20027;-78
2023/05/18 12:17:39;;;;;;;7.43;3.03;;;22.70;57.60;;;;;;5058028;28;20124;-78
2023/05/18 12:20:06;;;;;;;11.25;3.88;;;23.10;56.70;;;;;;5056656;28;20103;-77
2023/05/18 12:22:34;;;;;;;8.05;3.05;;;23.10;56.20;;;;;;5045002;28;20029;-77
2023/05/18 12:25:00;;;;;;;8.10;2.80;;;22.90;55.10;;;;;;5056084;28;20056;-78
2023/05/18 12:27:26;;;;;;;8.07;2.70;;;23.10;54.60;;;;;;5043326;28;20056;-77
2023/05/18 12:29:52;;;;;;;15.88;3.22;;;23.30;56.00;;;;;;5054332;28;20025;-78
2023/05/18 12:32:18;;;;;;;10.23;3.65;;;23.00;55.20;;;;;;5054887;28;20454;-78
2023/05/18 12:34:44;;;;;;;10.85;3.35;;;22.60;56.20;;;;;;5055335;28;20017;-79
2023/05/18 12:37:09;;;;;;;9.93;3.03;;;22.90;56.50;;;;;;5043534;28;20039;-78
2023/05/18 12:39:36;;;;;;;10.25;2.90;;;23.10;55.50;;;;;;5054031;28;20094;-78
2023/05/18 12:42:13;;;;;;;10.40;3.30;;;23.30;54.80;;;;;;5038169;28;20458;-78
2023/05/18 12:44:42;;;;;;;9.23;3.08;;;23.10;54.00;;;;;;5053415;28;20028;-77
2023/05/18 12:47:12;;;;;;;10.93;2.95;;;23.20;55.30;;;;;;5053408;28;20383;-78
2023/05/18 12:49:40;;;;;;;9.82;3.10;;;23.30;55.00;;;;;;5054812;28;20056;-77
2023/05/18 12:52:11;;;;;;;12.35;3.30;;;23.40;54.60;;;;;;5056585;28;20024;-77
2023/05/18 12:54:48;;;;;;;11.68;2.90;;;23.20;53.80;;;;;;5049147;28;20082;-77
2023/05/18 12:57:15;;;;;;;7.00;3.10;;;23.40;53.80;;;;;;5056914;28;20040;-78